Terminal Aerodrome Forecast
Issued by NWS La Crosse, WI

Home | Current Version | Previous Version | Text Only | Print | Product List | Glossary On
Versions: 1 2 3 4 5 6 7 8 9 10 11 12 13 14 15 16 17 18 19 20 21 22 23 24 25 26 27 28 29 30 31 32
000
FTUS43 KARX 272031 AAB
TAFRST
TAF AMD
KRST 272031Z 2721/2818 21006KT P6SM OVC014
     FM272230 20005KT P6SM BKN023
     FM280100 18005KT P6SM SCT025
     FM281000 17004KT 4SM BR SCT005
     FM281500 18009KT P6SM SCT025=

USA.gov is the U.S. government's official web portal to all federal, state and local government web resources and services.